sensor_id;sensor_type;location;lat;lon;timestamp;temperature;humidity
65044;DHT22;51617;48.158;16.464;2023-03-30T00:00:55;8.00;91.30
65044;DHT22;51617;48.158;16.464;2023-03-30T00:03:20;8.10;91.30
65044;DHT22;51617;48.158;16.464;2023-03-30T00:05:47;8.10;91.50
65044;DHT22;51617;48.158;16.464;2023-03-30T00:08:13;8.10;91.80
65044;DHT22;51617;48.158;16.464;2023-03-30T00:10:41;8.10;91.80
65044;DHT22;51617;48.158;16.464;2023-03-30T00:13:09;8.00;92.00
65044;DHT22;51617;48.158;16.464;2023-03-30T00:15:36;8.10;92.00
65044;DHT22;51617;48.158;16.464;2023-03-30T00:18:01;8.10;92.00
65044;DHT22;51617;48.158;16.464;2023-03-30T00:20:28;8.10;92.20
65044;DHT22;51617;48.158;16.464;2023-03-30T00:22:56;8.00;92.60
65044;DHT22;51617;48.158;16.464;2023-03-30T00:25:22;7.90;92.70
65044;DHT22;51617;48.158;16.464;2023-03-30T00:27:48;7.90;92.80
65044;DHT22;51617;48.158;16.464;2023-03-30T00:30:14;7.80;92.90
65044;DHT22;51617;48.158;16.464;2023-03-30T00:32:40;7.70;93.00
65044;DHT22;51617;48.158;16.464;2023-03-30T00:35:06;7.70;93.20
65044;DHT22;51617;48.158;16.464;2023-03-30T00:37:32;7.70;93.20
65044;DHT22;51617;48.158;16.464;2023-03-30T00:40:02;7.70;93.20
65044;DHT22;51617;48.158;16.464;2023-03-30T00:42:28;7.80;93.20
65044;DHT22;51617;48.158;16.464;2023-03-30T00:47:32;7.80;93.00
65044;DHT22;51617;48.158;16.464;2023-03-30T00:49:59;7.80;92.80
65044;DHT22;51617;48.158;16.464;2023-03-30T00:52:24;7.80;92.70
65044;DHT22;51617;48.158;16.464;2023-03-30T00:54:52;7.80;92.50
65044;DHT22;51617;48.158;16.464;2023-03-30T00:57:20;7.80;92.40
65044;DHT22;51617;48.158;16.464;2023-03-30T00:59:47;7.80;92.00
65044;DHT22;51617;48.158;16.464;2023-03-30T01:02:13;7.80;91.60
65044;DHT22;51617;48.158;16.464;2023-03-30T01:04:39;7.90;91.20
65044;DHT22;51617;48.158;16.464;2023-03-30T01:07:05;7.90;90.80
65044;DHT22;51617;48.158;16.464;2023-03-30T01:09:31;8.00;90.30
65044;DHT22;51617;48.158;16.464;2023-03-30T01:11:57;8.00;89.90
65044;DHT22;51617;48.158;16.464;2023-03-30T01:14:22;8.00;89.30
65044;DHT22;51617;48.158;16.464;2023-03-30T01:17:01;8.00;89.30
65044;DHT22;51617;48.158;16.464;2023-03-30T01:22:29;8.10;89.60
65044;DHT22;51617;48.158;16.464;2023-03-30T01:33:11;8.10;88.50
65044;DHT22;51617;48.158;16.464;2023-03-30T01:35:44;8.10;88.50
65044;DHT22;51617;48.158;16.464;2023-03-30T01:43:32;8.30;87.50
65044;DHT22;51617;48.158;16.464;2023-03-30T01:48:41;8.30;87.20
65044;DHT22;51617;48.158;16.464;2023-03-30T01:51:18;8.30;86.80
65044;DHT22;51617;48.158;16.464;2023-03-30T01:53:53;8.30;87.00
65044;DHT22;51617;48.158;16.464;2023-03-30T01:58:47;8.30;86.90
65044;DHT22;51617;48.158;16.464;2023-03-30T02:01:15;8.30;86.70
65044;DHT22;51617;48.158;16.464;2023-03-30T02:03:42;8.30;87.40
65044;DHT22;51617;48.158;16.464;2023-03-30T02:06:12;8.20;88.00
65044;DHT22;51617;48.158;16.464;2023-03-30T02:08:38;8.20;88.30
65044;DHT22;51617;48.158;16.464;2023-03-30T02:11:05;8.20;88.10
65044;DHT22;51617;48.158;16.464;2023-03-30T02:13:31;8.20;88.30
65044;DHT22;51617;48.158;16.464;2023-03-30T02:15:58;8.20;87.70
65044;DHT22;51617;48.158;16.464;2023-03-30T02:18:26;8.10;88.00
65044;DHT22;51617;48.158;16.464;2023-03-30T02:20:52;8.00;88.10
65044;DHT22;51617;48.158;16.464;2023-03-30T02:23:20;8.00;88.20
65044;DHT22;51617;48.158;16.464;2023-03-30T02:25:47;8.00;90.00
65044;DHT22;51617;48.158;16.464;2023-03-30T02:28:13;7.90;90.10
65044;DHT22;51617;48.158;16.464;2023-03-30T02:30:41;7.90;90.60
65044;DHT22;51617;48.158;16.464;2023-03-30T02:33:07;7.90;90.70
65044;DHT22;51617;48.158;16.464;2023-03-30T02:43:20;8.00;91.60
65044;DHT22;51617;48.158;16.464;2023-03-30T02:45:51;7.90;91.20
65044;DHT22;51617;48.158;16.464;2023-03-30T02:56:19;7.70;93.70
65044;DHT22;51617;48.158;16.464;2023-03-30T02:58:46;7.70;94.30
65044;DHT22;51617;48.158;16.464;2023-03-30T03:01:15;7.60;94.80
65044;DHT22;51617;48.158;16.464;2023-03-30T03:03:45;7.60;95.00
65044;DHT22;51617;48.158;16.464;2023-03-30T03:06:12;7.70;95.10
65044;DHT22;51617;48.158;16.464;2023-03-30T03:08:39;7.70;95.20
65044;DHT22;51617;48.158;16.464;2023-03-30T03:11:05;7.70;95.30
65044;DHT22;51617;48.158;16.464;2023-03-30T03:13:34;7.70;95.50
65044;DHT22;51617;48.158;16.464;2023-03-30T03:16:04;7.80;95.50
65044;DHT22;51617;48.158;16.464;2023-03-30T03:18:30;7.80;95.40
65044;DHT22;51617;48.158;16.464;2023-03-30T03:20:56;7.90;95.30
65044;DHT22;51617;48.158;16.464;2023-03-30T03:23:22;7.80;95.60
65044;DHT22;51617;48.158;16.464;2023-03-30T03:25:49;7.80;95.70
65044;DHT22;51617;48.158;16.464;2023-03-30T03:28:14;7.80;96.10
65044;DHT22;51617;48.158;16.464;2023-03-30T03:30:40;7.80;96.10
65044;DHT22;51617;48.158;16.464;2023-03-30T03:33:06;7.80;96.30
65044;DHT22;51617;48.158;16.464;2023-03-30T03:35:31;7.90;96.20
65044;DHT22;51617;48.158;16.464;2023-03-30T03:37:57;7.90;96.00
65044;DHT22;51617;48.158;16.464;2023-03-30T03:40:22;8.00;95.80
65044;DHT22;51617;48.158;16.464;2023-03-30T03:42:48;7.90;95.70
65044;DHT22;51617;48.158;16.464;2023-03-30T03:45:13;7.90;95.60
65044;DHT22;51617;48.158;16.464;2023-03-30T03:47:39;7.80;95.70
65044;DHT22;51617;48.158;16.464;2023-03-30T03:50:05;7.70;96.00
65044;DHT22;51617;48.158;16.464;2023-03-30T03:52:36;7.80;96.00
65044;DHT22;51617;48.158;16.464;2023-03-30T03:55:02;7.70;95.70
65044;DHT22;51617;48.158;16.464;2023-03-30T03:57:28;7.80;95.70
65044;DHT22;51617;48.158;16.464;2023-03-30T03:59:54;7.80;95.90
65044;DHT22;51617;48.158;16.464;2023-03-30T04:02:21;7.80;96.00
65044;DHT22;51617;48.158;16.464;2023-03-30T04:04:47;7.80;95.90
65044;DHT22;51617;48.158;16.464;2023-03-30T04:07:12;7.80;95.70
65044;DHT22;51617;48.158;16.464;2023-03-30T04:09:38;7.90;95.50
65044;DHT22;51617;48.158;16.464;2023-03-30T04:12:03;7.80;95.50
65044;DHT22;51617;48.158;16.464;2023-03-30T04:14:29;7.80;95.40
65044;DHT22;51617;48.158;16.464;2023-03-30T04:16:55;7.70;95.60
65044;DHT22;51617;48.158;16.464;2023-03-30T04:19:22;7.70;95.70
65044;DHT22;51617;48.158;16.464;2023-03-30T04:21:49;7.70;95.40
65044;DHT22;51617;48.158;16.464;2023-03-30T04:24:15;7.70;95.30
65044;DHT22;51617;48.158;16.464;2023-03-30T04:26:42;7.70;95.40
65044;DHT22;51617;48.158;16.464;2023-03-30T04:29:15;7.60;95.90
65044;DHT22;51617;48.158;16.464;2023-03-30T04:31:42;7.50;96.30
65044;DHT22;51617;48.158;16.464;2023-03-30T04:34:11;7.40;96.40
65044;DHT22;51617;48.158;16.464;2023-03-30T04:36:37;7.40;96.50
65044;DHT22;51617;48.158;16.464;2023-03-30T04:39:02;7.40;96.40
65044;DHT22;51617;48.158;16.464;2023-03-30T04:41:31;7.40;96.50
65044;DHT22;51617;48.158;16.464;2023-03-30T04:44:01;7.40;96.70
65044;DHT22;51617;48.158;16.464;2023-03-30T04:46:27;7.40;96.90
65044;DHT22;51617;48.158;16.464;2023-03-30T04:48:52;7.40;97.10
65044;DHT22;51617;48.158;16.464;2023-03-30T04:51:18;7.40;97.20
65044;DHT22;51617;48.158;16.464;2023-03-30T04:53:43;7.40;97.30
65044;DHT22;51617;48.158;16.464;2023-03-30T04:56:09;7.40;97.30
65044;DHT22;51617;48.158;16.464;2023-03-30T04:58:35;7.40;97.30
65044;DHT22;51617;48.158;16.464;2023-03-30T05:01:01;7.40;97.20
65044;DHT22;51617;48.158;16.464;2023-03-30T05:03:28;7.40;96.90
65044;DHT22;51617;48.158;16.464;2023-03-30T05:05:53;7.40;96.80
65044;DHT22;51617;48.158;16.464;2023-03-30T05:08:19;7.40;96.70
65044;DHT22;51617;48.158;16.464;2023-03-30T05:10:45;7.50;96.80
65044;DHT22;51617;48.158;16.464;2023-03-30T05:13:10;7.40;96.90
65044;DHT22;51617;48.158;16.464;2023-03-30T05:15:36;7.50;96.70
65044;DHT22;51617;48.158;16.464;2023-03-30T05:18:01;7.50;96.70
65044;DHT22;51617;48.158;16.464;2023-03-30T05:20:27;7.50;96.60
65044;DHT22;51617;48.158;16.464;2023-03-30T05:22:53;7.50;96.60
65044;DHT22;51617;48.158;16.464;2023-03-30T05:25:18;7.60;96.40
65044;DHT22;51617;48.158;16.464;2023-03-30T05:27:44;7.70;96.10
65044;DHT22;51617;48.158;16.464;2023-03-30T05:30:10;7.80;95.80
65044;DHT22;51617;48.158;16.464;2023-03-30T05:32:36;7.80;95.60
65044;DHT22;51617;48.158;16.464;2023-03-30T05:35:02;7.80;95.70
65044;DHT22;51617;48.158;16.464;2023-03-30T05:37:27;7.80;95.50
65044;DHT22;51617;48.158;16.464;2023-03-30T05:39:53;7.90;95.60
65044;DHT22;51617;48.158;16.464;2023-03-30T05:42:18;7.80;95.70
65044;DHT22;51617;48.158;16.464;2023-03-30T05:44:44;7.80;95.70
65044;DHT22;51617;48.158;16.464;2023-03-30T05:47:09;7.80;95.60
65044;DHT22;51617;48.158;16.464;2023-03-30T05:49:35;7.80;95.60
65044;DHT22;51617;48.158;16.464;2023-03-30T05:52:00;7.90;95.60
65044;DHT22;51617;48.158;16.464;2023-03-30T05:54:26;8.00;95.60
65044;DHT22;51617;48.158;16.464;2023-03-30T05:56:52;8.00;95.50
65044;DHT22;51617;48.158;16.464;2023-03-30T05:59:17;8.20;95.20
65044;DHT22;51617;48.158;16.464;2023-03-30T06:01:43;8.30;94.80
65044;DHT22;51617;48.158;16.464;2023-03-30T06:04:10;8.50;94.80
65044;DHT22;51617;48.158;16.464;2023-03-30T06:06:35;8.60;94.60
65044;DHT22;51617;48.158;16.464;2023-03-30T06:09:01;8.70;94.30
65044;DHT22;51617;48.158;16.464;2023-03-30T06:11:29;8.80;94.00
65044;DHT22;51617;48.158;16.464;2023-03-30T06:13:54;8.80;94.20
65044;DHT22;51617;48.158;16.464;2023-03-30T06:16:20;8.90;94.10
65044;DHT22;51617;48.158;16.464;2023-03-30T06:18:46;9.00;93.90
65044;DHT22;51617;48.158;16.464;2023-03-30T06:21:11;9.00;94.10
65044;DHT22;51617;48.158;16.464;2023-03-30T06:23:37;9.10;93.80
65044;DHT22;51617;48.158;16.464;2023-03-30T06:26:05;9.10;93.70
65044;DHT22;51617;48.158;16.464;2023-03-30T06:28:31;9.20;93.40
65044;DHT22;51617;48.158;16.464;2023-03-30T06:30:58;9.30;93.50
65044;DHT22;51617;48.158;16.464;2023-03-30T06:33:25;9.40;93.40
65044;DHT22;51617;48.158;16.464;2023-03-30T06:35:52;9.60;93.00
65044;DHT22;51617;48.158;16.464;2023-03-30T06:38:19;9.70;93.00
65044;DHT22;51617;48.158;16.464;2023-03-30T06:40:45;9.80;92.70
65044;DHT22;51617;48.158;16.464;2023-03-30T06:43:14;9.90;92.60
65044;DHT22;51617;48.158;16.464;2023-03-30T06:45:40;10.00;92.50
65044;DHT22;51617;48.158;16.464;2023-03-30T06:48:06;10.00;92.60
65044;DHT22;51617;48.158;16.464;2023-03-30T06:50:31;10.10;92.60
65044;DHT22;51617;48.158;16.464;2023-03-30T06:52:58;10.10;92.40
65044;DHT22;51617;48.158;16.464;2023-03-30T06:55:23;10.20;92.60
65044;DHT22;51617;48.158;16.464;2023-03-30T06:57:49;10.20;92.10
65044;DHT22;51617;48.158;16.464;2023-03-30T07:00:14;10.30;92.00
65044;DHT22;51617;48.158;16.464;2023-03-30T07:02:40;10.40;91.60
65044;DHT22;51617;48.158;16.464;2023-03-30T07:05:06;10.30;91.90
65044;DHT22;51617;48.158;16.464;2023-03-30T07:07:32;10.40;91.80
65044;DHT22;51617;48.158;16.464;2023-03-30T07:09:58;10.50;91.50
65044;DHT22;51617;48.158;16.464;2023-03-30T07:12:24;10.50;91.40
65044;DHT22;51617;48.158;16.464;2023-03-30T07:14:49;10.50;91.50
65044;DHT22;51617;48.158;16.464;2023-03-30T07:17:15;10.50;91.30
65044;DHT22;51617;48.158;16.464;2023-03-30T07:19:40;10.60;91.20
65044;DHT22;51617;48.158;16.464;2023-03-30T07:22:06;10.70;91.10
65044;DHT22;51617;48.158;16.464;2023-03-30T07:24:32;10.70;90.90
65044;DHT22;51617;48.158;16.464;2023-03-30T07:26:58;10.80;90.80
65044;DHT22;51617;48.158;16.464;2023-03-30T07:29:24;10.90;90.90
65044;DHT22;51617;48.158;16.464;2023-03-30T07:31:51;10.90;90.60
65044;DHT22;51617;48.158;16.464;2023-03-30T07:34:16;11.00;90.40
65044;DHT22;51617;48.158;16.464;2023-03-30T07:36:42;11.00;90.20
65044;DHT22;51617;48.158;16.464;2023-03-30T07:39:08;11.00;90.10
65044;DHT22;51617;48.158;16.464;2023-03-30T07:41:33;11.00;90.30
65044;DHT22;51617;48.158;16.464;2023-03-30T07:43:59;11.10;89.30
65044;DHT22;51617;48.158;16.464;2023-03-30T07:46:25;11.10;89.70
65044;DHT22;51617;48.158;16.464;2023-03-30T07:48:50;11.10;89.90
65044;DHT22;51617;48.158;16.464;2023-03-30T07:51:17;11.20;89.30
65044;DHT22;51617;48.158;16.464;2023-03-30T07:53:43;11.20;89.70
65044;DHT22;51617;48.158;16.464;2023-03-30T07:56:08;11.30;89.90
65044;DHT22;51617;48.158;16.464;2023-03-30T07:58:34;11.50;88.50
65044;DHT22;51617;48.158;16.464;2023-03-30T08:01:01;11.60;88.50
65044;DHT22;51617;48.158;16.464;2023-03-30T08:03:27;11.50;89.20
65044;DHT22;51617;48.158;16.464;2023-03-30T08:05:57;11.50;88.90
65044;DHT22;51617;48.158;16.464;2023-03-30T08:08:25;11.50;89.10
65044;DHT22;51617;48.158;16.464;2023-03-30T08:10:51;11.60;89.40
65044;DHT22;51617;48.158;16.464;2023-03-30T08:13:18;11.70;89.60
65044;DHT22;51617;48.158;16.464;2023-03-30T08:15:43;11.80;89.00
65044;DHT22;51617;48.158;16.464;2023-03-30T08:18:09;12.00;88.60
65044;DHT22;51617;48.158;16.464;2023-03-30T08:20:37;11.90;87.50
65044;DHT22;51617;48.158;16.464;2023-03-30T08:23:03;12.00;87.80
65044;DHT22;51617;48.158;16.464;2023-03-30T08:25:29;12.10;86.30
65044;DHT22;51617;48.158;16.464;2023-03-30T08:27:54;12.10;87.30
65044;DHT22;51617;48.158;16.464;2023-03-30T08:30:20;12.20;86.80
65044;DHT22;51617;48.158;16.464;2023-03-30T08:32:46;12.40;87.30
65044;DHT22;51617;48.158;16.464;2023-03-30T08:35:12;12.70;86.40
65044;DHT22;51617;48.158;16.464;2023-03-30T08:37:37;13.00;85.50
65044;DHT22;51617;48.158;16.464;2023-03-30T08:40:03;13.00;85.30
65044;DHT22;51617;48.158;16.464;2023-03-30T08:45:06;13.10;83.50
65044;DHT22;51617;48.158;16.464;2023-03-30T08:47:37;13.10;83.70
65044;DHT22;51617;48.158;16.464;2023-03-30T08:50:05;13.20;85.00
65044;DHT22;51617;48.158;16.464;2023-03-30T08:52:32;13.40;83.70
65044;DHT22;51617;48.158;16.464;2023-03-30T08:54:59;13.40;83.40
65044;DHT22;51617;48.158;16.464;2023-03-30T09:00:56;13.50;83.70
65044;DHT22;51617;48.158;16.464;2023-03-30T09:02:52;13.50;83.80
65044;DHT22;51617;48.158;16.464;2023-03-30T09:05:28;13.50;82.90
65044;DHT22;51617;48.158;16.464;2023-03-30T09:10:30;13.50;83.30
65044;DHT22;51617;48.158;16.464;2023-03-30T09:13:00;13.70;83.40
65044;DHT22;51617;48.158;16.464;2023-03-30T09:20:39;14.00;83.40
65044;DHT22;51617;48.158;16.464;2023-03-30T09:23:05;14.20;82.80
65044;DHT22;51617;48.158;16.464;2023-03-30T09:25:41;14.30;82.90
65044;DHT22;51617;48.158;16.464;2023-03-30T09:30:50;14.20;82.40
65044;DHT22;51617;48.158;16.464;2023-03-30T09:36:15;14.30;82.80
65044;DHT22;51617;48.158;16.464;2023-03-30T09:38:40;14.30;83.30
65044;DHT22;51617;48.158;16.464;2023-03-30T09:41:40;14.30;83.40
65044;DHT22;51617;48.158;16.464;2023-03-30T09:43:58;14.30;83.10
65044;DHT22;51617;48.158;16.464;2023-03-30T09:46:24;14.40;83.20
65044;DHT22;51617;48.158;16.464;2023-03-30T09:48:49;14.40;82.70
65044;DHT22;51617;48.158;16.464;2023-03-30T09:51:25;14.40;82.60
65044;DHT22;51617;48.158;16.464;2023-03-30T09:53:56;14.40;83.30
65044;DHT22;51617;48.158;16.464;2023-03-30T10:01:44;14.30;83.60
65044;DHT22;51617;48.158;16.464;2023-03-30T10:04:10;14.20;83.70
65044;DHT22;51617;48.158;16.464;2023-03-30T10:06:46;14.20;84.10
65044;DHT22;51617;48.158;16.464;2023-03-30T10:09:12;14.10;84.50
65044;DHT22;51617;48.158;16.464;2023-03-30T10:11:39;14.20;84.60
65044;DHT22;51617;48.158;16.464;2023-03-30T10:14:09;14.10;85.20
65044;DHT22;51617;48.158;16.464;2023-03-30T10:16:35;14.20;85.70
65044;DHT22;51617;48.158;16.464;2023-03-30T10:19:02;14.20;85.30
65044;DHT22;51617;48.158;16.464;2023-03-30T10:21:38;14.20;85.20
65044;DHT22;51617;48.158;16.464;2023-03-30T10:24:05;14.30;84.90
65044;DHT22;51617;48.158;16.464;2023-03-30T10:26:35;14.30;84.50
65044;DHT22;51617;48.158;16.464;2023-03-30T10:29:02;14.50;84.50
65044;DHT22;51617;48.158;16.464;2023-03-30T10:31:29;14.60;83.90
65044;DHT22;51617;48.158;16.464;2023-03-30T10:33:58;14.70;83.90
65044;DHT22;51617;48.158;16.464;2023-03-30T10:36:27;14.80;83.10
65044;DHT22;51617;48.158;16.464;2023-03-30T10:38:53;14.90;82.60
65044;DHT22;51617;48.158;16.464;2023-03-30T10:41:21;15.00;81.70
65044;DHT22;51617;48.158;16.464;2023-03-30T10:43:48;15.00;82.30
65044;DHT22;51617;48.158;16.464;2023-03-30T11:04:18;15.60;79.10
65044;DHT22;51617;48.158;16.464;2023-03-30T11:06:45;15.70;78.90
65044;DHT22;51617;48.158;16.464;2023-03-30T11:09:15;15.60;78.10
65044;DHT22;51617;48.158;16.464;2023-03-30T11:11:49;15.50;78.60
65044;DHT22;51617;48.158;16.464;2023-03-30T11:14:24;15.50;78.60
65044;DHT22;51617;48.158;16.464;2023-03-30T11:16:54;15.50;78.80
65044;DHT22;51617;48.158;16.464;2023-03-30T11:26:43;15.40;78.80
65044;DHT22;51617;48.158;16.464;2023-03-30T11:29:16;15.30;78.60
65044;DHT22;51617;48.158;16.464;2023-03-30T11:34:18;15.30;79.60
65044;DHT22;51617;48.158;16.464;2023-03-30T11:36:47;15.40;79.50
65044;DHT22;51617;48.158;16.464;2023-03-30T11:39:15;15.40;79.60
65044;DHT22;51617;48.158;16.464;2023-03-30T11:41:44;15.40;79.60
65044;DHT22;51617;48.158;16.464;2023-03-30T11:44:12;15.40;79.50
65044;DHT22;51617;48.158;16.464;2023-03-30T11:46:45;15.40;80.10
65044;DHT22;51617;48.158;16.464;2023-03-30T11:51:52;15.40;79.80
65044;DHT22;51617;48.158;16.464;2023-03-30T12:02:06;16.10;81.80
65044;DHT22;51617;48.158;16.464;2023-03-30T12:04:35;16.30;82.10
65044;DHT22;51617;48.158;16.464;2023-03-30T12:07:04;16.40;83.00
65044;DHT22;51617;48.158;16.464;2023-03-30T12:09:34;16.50;82.90
65044;DHT22;51617;48.158;16.464;2023-03-30T12:12:21;16.70;82.20
65044;DHT22;51617;48.158;16.464;2023-03-30T12:20:03;17.30;80.80
65044;DHT22;51617;48.158;16.464;2023-03-30T12:22:39;17.40;79.70
65044;DHT22;51617;48.158;16.464;2023-03-30T12:30:27;17.50;79.20
65044;DHT22;51617;48.158;16.464;2023-03-30T12:32:57;17.40;79.50
65044;DHT22;51617;48.158;16.464;2023-03-30T12:38:12;17.40;78.80
65044;DHT22;51617;48.158;16.464;2023-03-30T12:40:41;17.40;79.10
65044;DHT22;51617;48.158;16.464;2023-03-30T12:43:16;17.40;79.70
65044;DHT22;51617;48.158;16.464;2023-03-30T12:45:48;17.60;79.50
65044;DHT22;51617;48.158;16.464;2023-03-30T12:48:22;17.80;79.00
65044;DHT22;51617;48.158;16.464;2023-03-30T12:53:46;17.90;78.20
65044;DHT22;51617;48.158;16.464;2023-03-30T12:59:02;17.80;78.10
65044;DHT22;51617;48.158;16.464;2023-03-30T13:03:58;17.30;79.30
65044;DHT22;51617;48.158;16.464;2023-03-30T13:06:34;17.10;80.30
65044;DHT22;51617;48.158;16.464;2023-03-30T13:11:45;16.80;83.00
65044;DHT22;51617;48.158;16.464;2023-03-30T13:21:54;16.60;87.70
65044;DHT22;51617;48.158;16.464;2023-03-30T13:25:22;16.70;87.80
65044;DHT22;51617;48.158;16.464;2023-03-30T13:29:38;16.60;87.10
65044;DHT22;51617;48.158;16.464;2023-03-30T13:32:06;16.60;86.60
65044;DHT22;51617;48.158;16.464;2023-03-30T13:52:04;16.30;87.30
65044;DHT22;51617;48.158;16.464;2023-03-30T13:54:33;16.30;87.80
65044;DHT22;51617;48.158;16.464;2023-03-30T13:59:34;16.20;87.60
65044;DHT22;51617;48.158;16.464;2023-03-30T14:02:00;16.10;88.50
65044;DHT22;51617;48.158;16.464;2023-03-30T14:04:30;16.10;88.80
65044;DHT22;51617;48.158;16.464;2023-03-30T14:06:55;16.00;89.80
65044;DHT22;51617;48.158;16.464;2023-03-30T14:09:23;16.10;90.00
65044;DHT22;51617;48.158;16.464;2023-03-30T14:11:50;16.00;89.90
65044;DHT22;51617;48.158;16.464;2023-03-30T14:16:47;16.00;89.60
65044;DHT22;51617;48.158;16.464;2023-03-30T14:21:42;16.00;90.70
65044;DHT22;51617;48.158;16.464;2023-03-30T14:24:16;16.00;90.60
65044;DHT22;51617;48.158;16.464;2023-03-30T14:26:42;15.90;90.70
65044;DHT22;51617;48.158;16.464;2023-03-30T14:29:12;15.90;90.50
65044;DHT22;51617;48.158;16.464;2023-03-30T14:31:40;15.80;91.00
65044;DHT22;51617;48.158;16.464;2023-03-30T14:34:21;15.70;91.00
65044;DHT22;51617;48.158;16.464;2023-03-30T14:36:47;15.70;91.00
65044;DHT22;51617;48.158;16.464;2023-03-30T14:39:12;15.70;90.90
65044;DHT22;51617;48.158;16.464;2023-03-30T14:41:39;15.60;90.80
65044;DHT22;51617;48.158;16.464;2023-03-30T14:44:05;15.60;90.80
65044;DHT22;51617;48.158;16.464;2023-03-30T14:46:36;15.50;90.80
65044;DHT22;51617;48.158;16.464;2023-03-30T14:49:02;15.50;90.60
65044;DHT22;51617;48.158;16.464;2023-03-30T14:51:36;15.50;90.60
65044;DHT22;51617;48.158;16.464;2023-03-30T14:54:02;15.50;90.60
65044;DHT22;51617;48.158;16.464;2023-03-30T14:56:28;15.60;90.50
65044;DHT22;51617;48.158;16.464;2023-03-30T14:58:54;15.70;90.70
65044;DHT22;51617;48.158;16.464;2023-03-30T15:01:23;15.80;90.70
65044;DHT22;51617;48.158;16.464;2023-03-30T15:03:50;15.90;90.50
65044;DHT22;51617;48.158;16.464;2023-03-30T15:06:19;15.90;90.30
65044;DHT22;51617;48.158;16.464;2023-03-30T15:08:46;15.80;90.30
65044;DHT22;51617;48.158;16.464;2023-03-30T15:11:19;15.70;90.30
65044;DHT22;51617;48.158;16.464;2023-03-30T15:13:46;15.70;90.30
65044;DHT22;51617;48.158;16.464;2023-03-30T15:16:14;15.70;90.60
65044;DHT22;51617;48.158;16.464;2023-03-30T15:18:42;15.80;90.40
65044;DHT22;51617;48.158;16.464;2023-03-30T15:21:08;15.80;90.30
65044;DHT22;51617;48.158;16.464;2023-03-30T15:23:35;15.80;90.50
65044;DHT22;51617;48.158;16.464;2023-03-30T15:26:02;15.80;90.60
65044;DHT22;51617;48.158;16.464;2023-03-30T15:28:29;15.70;90.70
65044;DHT22;51617;48.158;16.464;2023-03-30T15:30:56;15.70;90.80
65044;DHT22;51617;48.158;16.464;2023-03-30T15:33:30;15.60;90.70
65044;DHT22;51617;48.158;16.464;2023-03-30T15:35:56;15.30;91.10
65044;DHT22;51617;48.158;16.464;2023-03-30T15:38:28;15.30;92.40
65044;DHT22;51617;48.158;16.464;2023-03-30T15:40:54;14.90;92.50
65044;DHT22;51617;48.158;16.464;2023-03-30T15:43:21;14.90;92.70
65044;DHT22;51617;48.158;16.464;2023-03-30T15:45:59;14.80;93.90
65044;DHT22;51617;48.158;16.464;2023-03-30T15:51:10;14.40;94.30
65044;DHT22;51617;48.158;16.464;2023-03-30T15:56:08;14.40;94.70
65044;DHT22;51617;48.158;16.464;2023-03-30T15:58:34;14.50;94.60
65044;DHT22;51617;48.158;16.464;2023-03-30T16:01:00;14.50;94.80
65044;DHT22;51617;48.158;16.464;2023-03-30T16:03:34;14.50;94.80
65044;DHT22;51617;48.158;16.464;2023-03-30T16:06:00;14.50;95.40
65044;DHT22;51617;48.158;16.464;2023-03-30T16:08:25;14.40;96.40
65044;DHT22;51617;48.158;16.464;2023-03-30T16:10:51;14.20;96.50
65044;DHT22;51617;48.158;16.464;2023-03-30T16:13:17;14.10;96.60
65044;DHT22;51617;48.158;16.464;2023-03-30T16:15:42;14.10;96.90
65044;DHT22;51617;48.158;16.464;2023-03-30T16:18:09;14.00;97.00
65044;DHT22;51617;48.158;16.464;2023-03-30T16:20:35;14.00;97.10
65044;DHT22;51617;48.158;16.464;2023-03-30T16:23:01;14.00;97.00
65044;DHT22;51617;48.158;16.464;2023-03-30T16:25:28;14.00;96.80
65044;DHT22;51617;48.158;16.464;2023-03-30T16:27:54;14.00;96.80
65044;DHT22;51617;48.158;16.464;2023-03-30T16:30:32;14.00;96.90
65044;DHT22;51617;48.158;16.464;2023-03-30T16:32:59;14.00;97.40
65044;DHT22;51617;48.158;16.464;2023-03-30T16:35:25;13.90;97.40
65044;DHT22;51617;48.158;16.464;2023-03-30T16:37:51;13.90;97.50
65044;DHT22;51617;48.158;16.464;2023-03-30T16:40:30;13.80;97.60
65044;DHT22;51617;48.158;16.464;2023-03-30T16:42:57;13.70;97.70
65044;DHT22;51617;48.158;16.464;2023-03-30T16:45:23;13.70;97.80
65044;DHT22;51617;48.158;16.464;2023-03-30T16:47:48;13.70;98.10
65044;DHT22;51617;48.158;16.464;2023-03-30T16:52:58;13.80;98.90
65044;DHT22;51617;48.158;16.464;2023-03-30T16:55:23;13.90;99.00
65044;DHT22;51617;48.158;16.464;2023-03-30T16:57:49;13.90;99.10
65044;DHT22;51617;48.158;16.464;2023-03-30T17:00:16;13.90;99.20
65044;DHT22;51617;48.158;16.464;2023-03-30T17:02:43;14.10;98.90
65044;DHT22;51617;48.158;16.464;2023-03-30T17:05:09;14.20;98.70
65044;DHT22;51617;48.158;16.464;2023-03-30T17:07:34;14.30;98.30
65044;DHT22;51617;48.158;16.464;2023-03-30T17:10:19;14.40;98.10
65044;DHT22;51617;48.158;16.464;2023-03-30T17:12:46;14.50;98.00
65044;DHT22;51617;48.158;16.464;2023-03-30T17:15:12;14.50;97.60
65044;DHT22;51617;48.158;16.464;2023-03-30T17:17:38;14.60;97.50
65044;DHT22;51617;48.158;16.464;2023-03-30T17:20:16;14.70;97.50
65044;DHT22;51617;48.158;16.464;2023-03-30T17:22:42;14.70;97.30
65044;DHT22;51617;48.158;16.464;2023-03-30T17:25:08;14.70;97.10
65044;DHT22;51617;48.158;16.464;2023-03-30T17:27:34;14.70;96.90
65044;DHT22;51617;48.158;16.464;2023-03-30T17:30:01;14.80;96.40
65044;DHT22;51617;48.158;16.464;2023-03-30T17:32:28;14.80;96.00
65044;DHT22;51617;48.158;16.464;2023-03-30T17:34:53;14.90;95.80
65044;DHT22;51617;48.158;16.464;2023-03-30T17:37:19;14.90;95.60
65044;DHT22;51617;48.158;16.464;2023-03-30T17:39:45;14.90;95.30
65044;DHT22;51617;48.158;16.464;2023-03-30T17:42:11;15.00;95.40
65044;DHT22;51617;48.158;16.464;2023-03-30T17:44:40;15.00;95.20
65044;DHT22;51617;48.158;16.464;2023-03-30T17:47:07;15.10;95.00
65044;DHT22;51617;48.158;16.464;2023-03-30T17:49:33;15.10;94.80
65044;DHT22;51617;48.158;16.464;2023-03-30T17:51:58;15.10;94.90
65044;DHT22;51617;48.158;16.464;2023-03-30T17:54:24;15.00;94.60
65044;DHT22;51617;48.158;16.464;2023-03-30T17:56:51;15.10;94.60
65044;DHT22;51617;48.158;16.464;2023-03-30T17:59:18;15.00;94.50
65044;DHT22;51617;48.158;16.464;2023-03-30T18:01:44;15.00;94.50
65044;DHT22;51617;48.158;16.464;2023-03-30T18:04:10;15.10;94.40
65044;DHT22;51617;48.158;16.464;2023-03-30T18:06:36;15.10;94.30
65044;DHT22;51617;48.158;16.464;2023-03-30T18:09:02;15.10;94.30
65044;DHT22;51617;48.158;16.464;2023-03-30T18:11:28;15.10;94.20
65044;DHT22;51617;48.158;16.464;2023-03-30T18:13:54;15.10;94.50